Sitka, AK

6:41 AM AKDT on July 28, 2014 (GMT -0800)
Sitka Rocky Gutierrez (PASI) Elev 20 ft | 57.05 °N, 135.36 °W | Change Station

Current weather conditions updated 48 minutes ago

Overcast
Overcast
56 °F
Feels Like 56 °F
N
0
Wind Variable Wind from North

Today is forecast to be Cooler than yesterday. Cloudy with rain.

Today
High -- | Low -- °F
--% Chance of Precip.
Yesterday
High -- | Low -- °F
Precip. -- in
4:52 AM 9:21 PM
New Moon, 2% visible
Pressure 30.05 in
Visibility 10.0 miles
Clouds Scattered Clouds 3900 ft
Mostly Cloudy 4800 ft
Overcast 8000 ft
Dew Point 55 °F
Humidity 97%
Rainfall 0.09 in
Snow Depth Not available.
UV 0 out of 12
Pollen Not available.
Air Quality Not available.
Flu Activity Not available.
METAR PASI 281353Z 00000KT 10SM SCT039 BKN048 OVC080 13/13 A3004 RMK AO2 SLP174 LWR CLDS NR MTNS T01330128 $

More Conditions Fewer Conditions

Pressure 30.05 in
Visibility 10.0 miles
Clouds Scattered Clouds 3900 ft
Mostly Cloudy 4800 ft
Overcast 8000 ft
Dew Point 55 °F
Humidity 97%
Rainfall 0.09 in
Snow Depth Not available.
UV 0 out of 12
Pollen Not available.
Air Quality Not available.
Flu Activity Not available.
METAR PASI 281353Z 00000KT 10SM SCT039 BKN048 OVC080 13/13 A3004 RMK AO2 SLP174 LWR CLDS NR MTNS T01330128 $

More Conditions Fewer Conditions

10-Day Weather Forecast

Almanac

Astronomy

Jul. 28, 2014 Rise Set
Actual Time 4:52 AM AKDT 9:21 PM AKDT
Civil Twilight 3:59 AM AKDT 10:14 PM AKDT
Nautical Twilight 2:31 AM AKDT 11:39 PM AKDT
Astronomical Twilight Sun does not rise Sun does not rise
Moon 7:16 AM AKDT 9:26 PM AKDT
Length of Visible Light 18h 14m
Length of Day
16h 29m
Tomorrow will be 3m 56s shorter.
New Moon, 2% of the Moon is Illuminated
Today
New Moon
Aug 3
First Quarter
Aug 10
Full
Aug 17
Last Quarter
Aug 25
New

Today's Extremes

State Highs State Lows

Community

WunderPhotos

Upload Photos

1,738,358 photos uploaded!

Nearby

Snow Depth

Station Depth Elevation
Long Lake 0 in 820 ft
Moraine 0 in 2100 ft
Grandview 4 in 1100 ft
Grouse Creek Divide 0 in 700 ft
Nuka Glacier 0 in 1250 ft

Earthquake Activity

City Distance Mag. Time & Date
No recent earthquake activity has been reported nearby.
Minimum magnitude displayed is 2.5.

Coastal Water Temperatures

Place Temperature
No Stations Reporting

Nearby Weather Stations

Station Location Temp. Dew Point Humidity Wind Precip. Elev Updated Type
HADS TAKATZ C NR BARANOF AK , Sitka, AK 53 °F - - North  at  - 0.00 in / hr 227 ft 5:00 AM AKDT MADIS

Show More Stations Show Fewer Stations